Clear Creek, Nevada
Current Conditions -  °F | °C
As of 3:55 PM on Monday 20 Oct 2014 (Local Time) from KCXP Reporting Station
Clear Clear  
Wind Chill: 68°   Ceiling: Unl
Heat Index: 68°   Visibility: 10mi
Dew Point: 32°   Wind: 13mph
Humidity: 26%   Direction: 240°WSW
Pressure: 29.91"   Gusts: 22mph
Location:  39.1386°N, 119.659°W
Report Text: KCXP 202255Z AUTO 24011G19KT 10SM CLR 20/00 A2991 RMK AO2
Loading
Personal Weather Stations






























Interactive Weather Map
Tropical Storm Tracking
New forecast layout! Learn more

10-Day Weather Forecast

Advertisements
Track Severe Weather on mobile